• Join FlightAware (Why Join?)
  • Login
  • US Flag 
12:23PM EDT


 

Airport Tracker/Info


-or-


 

Live Flight TrackerFlight Track Log ✈ ASH3770 ✈ 03-Jul-2013 ✈ KORF - KIAD

Flight Track Log - Related Links

Times and Time Zones

All times are in EDT time to prevent confusion due to time zone crossing. See the ASH3770 flight status page for this flight to view local times or setup timezone preferences in your user account.

Time Position Orientation Groundspeed Altitude Reporting Facility
EDT Latitude Longitude Course Direction KTS MPH feet Rate Location/Type
05:19PM 36.8322 -76.2614 215° Southwest 192 221 14,000  Level Washington Center
05:20PM 36.8506 -76.3394 286° West 277 319 5,900 -3,420 Descending Washington Center
05:21PM 37.0982 -76.6294 300° West  Level FlightAware Approximate
05:21PM 36.8897 -76.4022 308° West 286 329 8,200  Level Washington Center
05:22PM 37.1488 -76.7407 300° West  Level FlightAware Approximate
05:22PM 36.9353 -76.4753 308° West 295 339 10,800  Level Washington Center
05:23PM 37.2028 -76.8492 307° West  Level FlightAware Approximate
05:23PM 36.9928 -76.5669 308° West 315 362 13,500  Level Washington Center
05:24PM 37.0608 -76.6797 307° West 351 404 14,000 180 Climbing Washington Center
05:25PM 37.1431 -76.8111 308° West 383 441 14,000 1,260 Level Washington Center
05:26PM 37.2086 -76.9219 307° West 398 458 16,600 2,280 Climbing Washington Center
05:27PM 37.2719 -77.0300 306° West 393 452 18,700 1,140 Climbing Washington Center
05:28PM 37.3517 -77.1489 310° West 394 453 19,000 120 Climbing Washington Center
05:29PM 37.4319 -77.2344 320° Northwest 409 471 19,000  Level Washington Center
05:30PM 37.5525 -77.2606 350° North 387 445 19,000  Level Washington Center
05:31PM 37.6697 -77.2314 11° North 390 449 19,000 -60 Level Washington Center
05:32PM 37.7872 -77.1789 19° North 413 475 18,900 -720 Descending Washington Center
05:33PM 37.9022 -77.1681 North 418 481 17,600 -1,920 Descending Washington Center
05:34PM 37.9886 -77.2464 324° Northwest 365 420 15,100 -2,520 Descending Washington Center
05:35PM 38.0606 -77.3244 320° Northwest 364 419 12,500 -2,580 Descending Washington Center
05:36PM 38.1386 -77.4028 322° Northwest 364 419 10,100 -1,260 Descending Washington Center
05:37PM 38.2219 -77.4233 349° North 317 365 10,100 -60 Level Washington Center
05:38PM 38.3017 -77.3775 24° Northeast 286 329 10,000 -600 Descending Washington Center
05:39PM 38.3833 -77.3558 12° North 296 341 8,900 4,380 Descending Washington Center
05:40PM 38.4667 -77.3603 358° North 296 341 19,000 -1,620 Climbing Washington Center
05:41PM 38.5458 -77.3650 357° North 286 329 5,700 -7,560 Descending Washington Center
05:42PM 38.6272 -77.3669 359° North 286 329 4,100 -900 Descending Washington Center
05:43PM 38.7086 -77.3636 North 286 329 3,900 -120 Descending Washington Center
05:44PM 38.7878 -77.3600 North 286 329 3,900  Level Washington Center
05:45PM 38.9000 -77.3500 North 284 327 4,000  Climbing Potomac TRACON
05:46PM 38.9667 -77.3500 360° North 281 323 3,900 -240 Descending Potomac TRACON
05:47PM 39.0333 -77.3500 360° North 244 281 3,600 -540 Descending Potomac TRACON
05:48PM 39.1167 -77.3500 360° North 231 266 2,900 -660 Descending Potomac TRACON
05:49PM 39.1167 -77.4000 270° West 170 196 2,300 -480 Descending Potomac TRACON
05:50PM 39.1000 -77.4500 247° West 166 191 2,000 -300 Descending Potomac TRACON
05:51PM 39.0500 -77.4500 180° South 163 188 1,800 -480 Descending Potomac TRACON
05:52PM 39.0167 -77.4667 201° Southwest 134 154 1,100 -720 Descending Potomac TRACON